Time,TemperatureF,DewpointF,PressureIn,WindDirection,WindDirectionDegrees,WindSpeedMPH,WindSpeedGustMPH,Humidity,HourlyPrecipIn,Conditions,Clouds,dailyrainin,SoftwareType,DateUTC
2013-01-07 00:00:00,34.5,26.1,30.17,ESE,112,0.0,0.0,71,0.00,,CLR,0.02,VWS V12.08,2013-01-07 05:00:00,
2013-01-07 00:02:00,34.5,26.1,30.17,ESE,112,0.0,0.0,71,0.00,,CLR,0.00,VWS V12.08,2013-01-07 05:02:00,
2013-01-07 00:03:00,34.3,26.3,30.17,ESE,112,0.0,0.0,72,0.00,,CLR,0.00,VWS V12.08,2013-01-07 05:03:00,
2013-01-07 00:08:00,34.3,26.3,30.17,ESE,112,0.0,0.0,72,0.00,,CLR,0.00,VWS V12.08,2013-01-07 05:08:00,
2013-01-07 00:13:00,34.3,26.3,30.17,ESE,112,0.0,0.0,72,0.00,,CLR,0.00,VWS V12.08,2013-01-07 05:13:00,
2013-01-07 00:18:00,34.3,25.9,30.17,West,270,0.0,0.0,71,0.00,,CLR,0.00,VWS V12.08,2013-01-07 05:18:00,
2013-01-07 00:23:00,34.3,25.9,30.17,West,270,0.0,0.0,71,0.00,,CLR,0.00,VWS V12.08,2013-01-07 05:23:00,
2013-01-07 00:28:00,34.3,25.9,30.17,West,270,0.0,0.0,71,0.00,,CLR,0.00,VWS V12.08,2013-01-07 05:28:00,
2013-01-07 00:33:00,36.1,27.3,30.17,WNW,292,0.0,0.0,70,0.00,,CLR,0.00,VWS V12.08,2013-01-07 05:33:00,
2013-01-07 00:38:00,36.1,27.3,30.17,West,270,0.0,0.0,70,0.00,,CLR,0.00,VWS V12.08,2013-01-07 05:38:00,
2013-01-07 00:43:00,36.1,27.3,30.17,WNW,292,0.0,0.0,70,0.00,,CLR,0.00,VWS V12.08,2013-01-07 05:43:00,
2013-01-07 00:48:00,36.3,27.1,30.17,NW,315,0.0,0.0,69,0.00,,CLR,0.00,VWS V12.08,2013-01-07 05:48:00,
2013-01-07 00:53:00,36.5,27.3,30.17,West,270,0.0,0.0,69,0.00,,CLR,0.00,VWS V12.08,2013-01-07 05:53:00,
2013-01-07 00:58:00,36.5,27.3,30.17,WNW,292,0.0,0.0,69,0.00,,CLR,0.00,VWS V12.08,2013-01-07 05:58:00,
2013-01-07 01:03:00,37.0,27.5,30.16,West,270,0.0,0.0,68,0.00,,CLR,0.00,VWS V12.08,2013-01-07 06:03:00,
2013-01-07 01:08:00,37.0,27.5,30.16,West,270,0.0,0.0,68,0.00,,CLR,0.00,VWS V12.08,2013-01-07 06:08:00,
2013-01-07 01:13:00,37.0,27.5,30.17,West,270,0.0,0.0,68,0.00,,CLR,0.00,VWS V12.08,2013-01-07 06:13:00,
2013-01-07 01:18:00,36.7,27.1,30.16,SE,135,0.0,0.0,68,0.00,,CLR,0.00,VWS V12.08,2013-01-07 06:18:00,
2013-01-07 01:23:00,36.5,27.0,30.17,SSE,158,0.0,0.0,68,0.00,,CLR,0.00,VWS V12.08,2013-01-07 06:23:00,
2013-01-07 01:28:00,36.3,26.8,30.17,SSE,158,0.0,0.0,68,0.00,,CLR,0.00,VWS V12.08,2013-01-07 06:28:00,
2013-01-07 01:33:00,36.5,27.3,30.17,West,270,0.0,0.0,69,0.00,,CLR,0.00,VWS V12.08,2013-01-07 06:33:00,
2013-01-07 01:38:00,36.7,27.1,30.17,East,90,0.0,0.0,68,0.00,,CLR,0.00,VWS V12.08,2013-01-07 06:38:00,
2013-01-07 01:43:00,36.5,27.0,30.17,ENE,68,0.0,0.0,68,0.00,,CLR,0.00,VWS V12.08,2013-01-07 06:43:00,
2013-01-07 01:48:00,36.3,27.1,30.17,NW,315,0.0,0.0,69,0.00,,CLR,0.00,VWS V12.08,2013-01-07 06:48:00,
2013-01-07 01:53:00,36.3,27.1,30.17,NW,315,0.0,0.0,69,0.00,,CLR,0.00,VWS V12.08,2013-01-07 06:53:00,
2013-01-07 01:58:00,36.7,27.5,30.17,WNW,292,3.6,7.2,69,0.00,,CLR,0.00,VWS V12.08,2013-01-07 06:58:00,
2013-01-07 02:03:00,37.2,27.6,30.17,WNW,292,0.0,1.8,68,0.00,,CLR,0.00,VWS V12.08,2013-01-07 07:03:00,
2013-01-07 02:08:00,37.6,27.6,30.18,WSW,248,0.0,1.8,67,0.00,,CLR,0.00,VWS V12.08,2013-01-07 07:08:00,
2013-01-07 02:13:00,37.4,27.5,30.19,WSW,248,0.0,1.8,67,0.00,,CLR,0.00,VWS V12.08,2013-01-07 07:13:00,
2013-01-07 02:18:00,37.0,27.1,30.18,WNW,292,0.0,1.8,67,0.00,,CLR,0.00,VWS V12.08,2013-01-07 07:18:00,
2013-01-07 02:23:00,37.0,27.1,30.19,WNW,292,0.0,0.0,67,0.00,,CLR,0.00,VWS V12.08,2013-01-07 07:23:00,
2013-01-07 02:28:00,36.9,27.3,30.19,WNW,292,4.5,4.5,68,0.00,,CLR,0.00,VWS V12.08,2013-01-07 07:28:00,
2013-01-07 02:33:00,37.4,27.5,30.19,NW,315,0.0,5.6,67,0.00,,CLR,0.00,VWS V12.08,2013-01-07 07:33:00,
2013-01-07 02:38:00,37.6,27.3,30.19,WNW,292,0.4,5.6,66,0.00,,CLR,0.00,VWS V12.08,2013-01-07 07:38:00,
2013-01-07 02:43:00,37.8,27.4,30.19,NW,315,1.6,2.7,66,0.00,,CLR,0.00,VWS V12.08,2013-01-07 07:43:00,
2013-01-07 02:48:00,38.3,27.6,30.19,SSE,158,0.0,2.7,65,0.00,,CLR,0.00,VWS V12.08,2013-01-07 07:48:00,
2013-01-07 02:53:00,38.3,27.6,30.20,SSE,158,0.0,2.7,65,0.00,,CLR,0.00,VWS V12.08,2013-01-07 07:53:00,
2013-01-07 02:58:00,37.9,27.2,30.20,West,270,0.0,2.7,65,0.00,,CLR,0.00,VWS V12.08,2013-01-07 07:58:00,
2013-01-07 03:04:00,37.9,26.9,30.20,West,270,0.0,0.0,64,0.00,,CLR,0.00,VWS V12.08,2013-01-07 08:04:00,
2013-01-07 03:09:00,37.8,26.7,30.21,West,270,0.0,0.0,64,0.00,,CLR,0.00,VWS V12.08,2013-01-07 08:09:00,
2013-01-07 03:14:00,37.8,26.7,30.20,West,270,0.0,0.0,64,0.00,,CLR,0.00,VWS V12.08,2013-01-07 08:14:00,
2013-01-07 03:19:00,37.8,26.7,30.21,West,270,0.0,0.0,64,0.00,,CLR,0.00,VWS V12.08,2013-01-07 08:19:00,
2013-01-07 03:24:00,37.4,26.4,30.21,NW,315,0.0,0.0,64,0.00,,CLR,0.00,VWS V12.08,2013-01-07 08:24:00,
2013-01-07 03:29:00,37.0,26.4,30.21,NW,315,0.0,0.0,65,0.00,,CLR,0.00,VWS V12.08,2013-01-07 08:29:00,
2013-01-07 03:34:00,36.5,25.9,30.21,WNW,292,0.0,0.0,65,0.00,,CLR,0.00,VWS V12.08,2013-01-07 08:34:00,
2013-01-07 03:39:00,36.3,26.1,30.21,WNW,292,0.0,0.0,66,0.00,,CLR,0.00,VWS V12.08,2013-01-07 08:39:00,
2013-01-07 03:44:00,35.8,25.5,30.22,WNW,292,0.0,0.0,66,0.00,,CLR,0.00,VWS V12.08,2013-01-07 08:44:00,
2013-01-07 03:49:00,35.4,25.6,30.21,WNW,292,0.0,0.0,67,0.00,,CLR,0.00,VWS V12.08,2013-01-07 08:49:00,
2013-01-07 03:54:00,35.4,25.6,30.21,WNW,292,0.0,0.0,67,0.00,,CLR,0.00,VWS V12.08,2013-01-07 08:54:00,
2013-01-07 03:59:00,34.9,25.0,30.21,WNW,292,0.0,0.0,67,0.00,,CLR,0.00,VWS V12.08,2013-01-07 08:59:00,
2013-01-07 04:04:00,34.9,25.0,30.21,WNW,292,0.0,0.0,67,0.00,,CLR,0.00,VWS V12.08,2013-01-07 09:04:00,
2013-01-07 04:09:00,34.9,25.0,30.21,WNW,292,0.0,0.0,67,0.00,,CLR,0.00,VWS V12.08,2013-01-07 09:09:00,
2013-01-07 04:14:00,34.7,25.2,30.21,WNW,292,0.0,0.0,68,0.00,,CLR,0.00,VWS V12.08,2013-01-07 09:14:00,
2013-01-07 04:19:00,34.5,25.1,30.21,WNW,292,0.0,0.0,68,0.00,,CLR,0.00,VWS V12.08,2013-01-07 09:19:00,
2013-01-07 04:24:00,34.3,25.2,30.21,West,270,0.0,0.0,69,0.00,,CLR,0.00,VWS V12.08,2013-01-07 09:24:00,
2013-01-07 04:29:00,34.3,25.2,30.20,West,270,0.0,0.0,69,0.00,,CLR,0.00,VWS V12.08,2013-01-07 09:29:00,
2013-01-07 04:34:00,33.8,24.7,30.21,SE,135,0.0,0.0,69,0.00,,CLR,0.00,VWS V12.08,2013-01-07 09:34:00,
2013-01-07 04:39:00,33.8,24.7,30.21,SE,135,0.0,0.0,69,0.00,,CLR,0.00,VWS V12.08,2013-01-07 09:39:00,
2013-01-07 04:44:00,33.4,24.7,30.20,SSE,158,0.0,0.0,70,0.00,,CLR,0.00,VWS V12.08,2013-01-07 09:44:00,
2013-01-07 04:49:00,33.1,24.4,30.20,WNW,292,0.0,0.0,70,0.00,,CLR,0.00,VWS V12.08,2013-01-07 09:49:00,
2013-01-07 04:54:00,33.1,24.4,30.21,WNW,292,0.0,0.0,70,0.00,,CLR,0.00,VWS V12.08,2013-01-07 09:54:00,
2013-01-07 04:59:00,32.7,24.4,30.21,SE,135,0.0,2.0,71,0.00,,CLR,0.00,VWS V12.08,2013-01-07 09:59:00,
2013-01-07 05:04:00,32.7,24.4,30.21,SE,135,0.0,0.0,71,0.00,,CLR,0.00,VWS V12.08,2013-01-07 10:04:00,
2013-01-07 05:09:00,32.7,24.4,30.21,SE,135,0.0,0.0,71,0.00,,CLR,0.00,VWS V12.08,2013-01-07 10:09:00,
2013-01-07 05:14:00,32.7,24.4,30.21,SE,135,0.0,0.0,71,0.00,,CLR,0.00,VWS V12.08,2013-01-07 10:14:00,
2013-01-07 05:19:00,32.7,24.4,30.22,SE,135,0.0,0.0,71,0.00,,CLR,0.00,VWS V12.08,2013-01-07 10:19:00,
2013-01-07 05:24:00,32.5,24.5,30.22,SE,135,0.0,0.0,72,0.00,,CLR,0.00,VWS V12.08,2013-01-07 10:24:00,
2013-01-07 05:29:00,32.5,24.5,30.22,SE,135,0.0,0.0,72,0.00,,CLR,0.00,VWS V12.08,2013-01-07 10:29:00,
2013-01-07 05:34:00,32.5,24.5,30.22,SE,135,0.0,0.0,72,0.00,,CLR,0.00,VWS V12.08,2013-01-07 10:34:00,
2013-01-07 05:39:00,32.4,24.4,30.23,SE,135,0.0,0.0,72,0.00,,CLR,0.00,VWS V12.08,2013-01-07 10:39:00,
2013-01-07 05:44:00,32.2,24.2,30.23,SE,135,0.0,0.0,72,0.00,,CLR,0.00,VWS V12.08,2013-01-07 10:44:00,
2013-01-07 05:49:00,32.2,24.2,30.24,SE,135,0.0,0.0,72,0.00,,CLR,0.00,VWS V12.08,2013-01-07 10:49:00,
2013-01-07 05:54:00,32.0,24.0,30.23,SE,135,0.0,0.0,72,0.00,,CLR,0.00,VWS V12.08,2013-01-07 10:54:00,
2013-01-07 05:59:00,32.0,24.0,30.23,SE,135,0.0,0.0,72,0.00,,CLR,0.00,VWS V12.08,2013-01-07 10:59:00,
2013-01-07 06:04:00,32.0,24.0,30.23,SE,135,0.0,0.0,72,0.00,,CLR,0.00,VWS V12.08,2013-01-07 11:04:00,
2013-01-07 06:09:00,31.6,24.0,30.23,ESE,112,0.0,0.0,73,0.00,,CLR,0.00,VWS V12.08,2013-01-07 11:09:00,
2013-01-07 06:14:00,31.5,23.8,30.24,ESE,112,0.0,0.0,73,0.00,,CLR,0.00,VWS V12.08,2013-01-07 11:14:00,
2013-01-07 06:19:00,31.3,23.6,30.24,SE,135,0.0,0.0,73,0.00,,CLR,0.00,VWS V12.08,2013-01-07 11:19:00,
2013-01-07 06:24:00,30.9,23.3,30.25,SE,135,0.0,0.0,73,0.00,,CLR,0.00,VWS V12.08,2013-01-07 11:24:00,
2013-01-07 06:29:00,30.9,23.3,30.25,ESE,112,0.0,0.0,73,0.00,,CLR,0.00,VWS V12.08,2013-01-07 11:29:00,
2013-01-07 06:35:00,30.7,23.5,30.25,SE,135,0.0,0.0,74,0.00,,CLR,0.00,VWS V12.08,2013-01-07 11:35:00,
2013-01-07 06:40:00,30.7,23.5,30.26,SE,135,0.0,0.0,74,0.00,,CLR,0.00,VWS V12.08,2013-01-07 11:40:00,
2013-01-07 06:45:00,30.9,23.6,30.26,SE,135,0.0,0.0,74,0.00,,CLR,0.00,VWS V12.08,2013-01-07 11:45:00,
2013-01-07 06:50:00,30.7,23.5,30.26,SE,135,0.0,0.0,74,0.00,,CLR,0.00,VWS V12.08,2013-01-07 11:50:00,
2013-01-07 06:55:00,30.9,23.6,30.26,SE,135,0.0,0.0,74,0.00,,CLR,0.00,VWS V12.08,2013-01-07 11:55:00,
2013-01-07 07:00:00,30.7,23.5,30.26,SE,135,0.0,0.0,74,0.00,,CLR,0.00,VWS V12.08,2013-01-07 12:00:00,
2013-01-07 07:05:00,30.7,23.8,30.27,SE,135,0.0,0.0,75,0.00,,CLR,0.00,VWS V12.08,2013-01-07 12:05:00,
2013-01-07 07:10:00,30.7,23.8,30.27,SE,135,0.0,0.0,75,0.00,,CLR,0.00,VWS V12.08,2013-01-07 12:10:00,
2013-01-07 07:15:00,30.6,23.6,30.27,SE,135,0.0,0.0,75,0.00,,CLR,0.00,VWS V12.08,2013-01-07 12:15:00,
2013-01-07 07:20:00,30.4,23.4,30.27,SE,135,0.0,0.0,75,0.00,,CLR,0.00,VWS V12.08,2013-01-07 12:20:00,
2013-01-07 07:25:00,30.4,23.4,30.28,SE,135,0.0,0.0,75,0.00,,CLR,0.00,VWS V12.08,2013-01-07 12:25:00,
2013-01-07 07:30:00,30.0,23.1,30.28,SE,135,0.0,0.0,75,0.00,,CLR,0.00,VWS V12.08,2013-01-07 12:30:00,
2013-01-07 07:35:00,30.0,23.1,30.28,SE,135,0.0,0.0,75,0.00,,CLR,0.00,VWS V12.08,2013-01-07 12:35:00,
2013-01-07 07:40:00,29.8,22.9,30.29,SE,135,0.0,0.0,75,0.00,,CLR,0.00,VWS V12.08,2013-01-07 12:40:00,
2013-01-07 07:45:00,29.8,23.2,30.29,SE,135,0.0,0.0,76,0.00,,CLR,0.00,VWS V12.08,2013-01-07 12:45:00,
2013-01-07 07:50:00,29.8,23.2,30.29,SE,135,0.0,0.0,76,0.00,,CLR,0.00,VWS V12.08,2013-01-07 12:50:00,
2013-01-07 07:55:00,29.8,23.2,30.30,SE,135,0.0,0.0,76,0.00,,CLR,0.00,VWS V12.08,2013-01-07 12:55:00,
2013-01-07 08:00:00,29.7,23.0,30.30,ESE,112,0.0,0.0,76,0.00,,CLR,0.00,VWS V12.08,2013-01-07 13:00:00,
2013-01-07 08:05:00,29.7,23.0,30.31,ESE,112,0.0,0.0,76,0.00,,CLR,0.00,VWS V12.08,2013-01-07 13:05:00,
2013-01-07 08:10:00,29.5,22.9,30.31,ESE,112,0.0,0.0,76,0.00,,CLR,0.00,VWS V12.08,2013-01-07 13:10:00,
2013-01-07 08:15:00,29.5,22.9,30.32,ESE,112,0.0,0.0,76,0.00,,CLR,0.00,VWS V12.08,2013-01-07 13:15:00,
2013-01-07 08:20:00,29.5,22.9,30.32,ESE,112,0.0,0.0,76,0.00,,CLR,0.00,VWS V12.08,2013-01-07 13:20:00,
2013-01-07 08:25:00,29.5,22.9,30.32,ESE,112,0.0,0.0,76,0.00,,CLR,0.00,VWS V12.08,2013-01-07 13:25:00,
2013-01-07 08:30:00,29.8,23.5,30.32,ESE,112,0.0,0.0,77,0.00,,CLR,0.00,VWS V12.08,2013-01-07 13:30:00,
2013-01-07 08:35:00,30.0,24.0,30.33,ESE,112,0.0,0.0,78,0.00,,CLR,0.00,VWS V12.08,2013-01-07 13:35:00,
2013-01-07 08:40:00,30.2,24.2,30.33,ESE,112,0.0,0.0,78,0.00,,CLR,0.00,VWS V12.08,2013-01-07 13:40:00,
2013-01-07 08:45:00,30.4,24.4,30.33,ESE,112,0.0,0.0,78,0.00,,CLR,0.00,VWS V12.08,2013-01-07 13:45:00,
2013-01-07 08:50:00,30.9,24.9,30.33,ESE,112,0.0,0.0,78,0.00,,CLR,0.00,VWS V12.08,2013-01-07 13:50:00,
2013-01-07 08:55:00,30.9,24.9,30.34,ESE,112,0.0,0.0,78,0.00,,CLR,0.00,VWS V12.08,2013-01-07 13:55:00,
2013-01-07 09:00:00,31.3,25.2,30.34,ESE,112,0.0,0.0,78,0.00,,CLR,0.00,VWS V12.08,2013-01-07 14:00:00,
2013-01-07 09:05:00,31.6,25.6,30.34,ESE,112,0.0,0.0,78,0.00,,CLR,0.00,VWS V12.08,2013-01-07 14:05:00,
2013-01-07 09:10:00,32.2,26.1,30.34,ESE,112,0.0,0.0,78,0.00,,CLR,0.00,VWS V12.08,2013-01-07 14:10:00,
2013-01-07 09:15:00,32.5,26.5,30.35,ESE,112,0.0,0.0,78,0.00,,CLR,0.00,VWS V12.08,2013-01-07 14:15:00,
2013-01-07 09:20:00,32.7,26.6,30.35,ESE,112,0.0,0.0,78,0.00,,CLR,0.00,VWS V12.08,2013-01-07 14:20:00,
2013-01-07 09:25:00,33.4,27.3,30.35,ESE,112,0.0,0.0,78,0.00,,CLR,0.00,VWS V12.08,2013-01-07 14:25:00,
2013-01-07 09:30:00,34.0,27.9,30.35,ESE,112,0.0,0.0,78,0.00,,CLR,0.00,VWS V12.08,2013-01-07 14:30:00,
2013-01-07 09:35:00,34.3,27.9,30.35,ESE,112,0.0,0.0,77,0.00,,CLR,0.00,VWS V12.08,2013-01-07 14:35:00,
2013-01-07 09:40:00,34.9,28.1,30.35,ESE,112,0.0,0.0,76,0.00,,CLR,0.00,VWS V12.08,2013-01-07 14:40:00,
2013-01-07 09:45:00,35.4,28.3,30.36,West,270,0.0,0.7,75,0.00,,CLR,0.00,VWS V12.08,2013-01-07 14:45:00,
2013-01-07 09:50:00,36.1,28.7,30.36,West,270,0.0,0.7,74,0.00,,CLR,0.00,VWS V12.08,2013-01-07 14:50:00,
2013-01-07 09:55:00,36.7,29.2,30.36,West,270,0.0,0.7,74,0.00,,CLR,0.00,VWS V12.08,2013-01-07 14:55:00,
2013-01-07 10:00:00,37.2,29.0,30.36,WNW,292,0.0,0.0,72,0.00,,CLR,0.00,VWS V12.08,2013-01-07 15:00:00,
2013-01-07 10:05:00,37.8,29.2,30.37,ENE,68,0.9,2.5,71,0.00,,CLR,0.00,VWS V12.08,2013-01-07 15:05:00,
2013-01-07 10:10:00,38.3,29.0,30.36,ENE,68,0.0,2.5,69,0.00,,CLR,0.00,VWS V12.08,2013-01-07 15:10:00,
2013-01-07 10:15:00,38.8,29.2,30.36,ENE,68,0.0,2.5,68,0.00,,CLR,0.00,VWS V12.08,2013-01-07 15:15:00,
2013-01-07 10:20:00,39.4,29.4,30.37,ENE,68,1.3,2.0,67,0.00,,CLR,0.00,VWS V12.08,2013-01-07 15:20:00,
2013-01-07 10:25:00,39.9,29.5,30.37,ENE,68,2.5,2.5,66,0.00,,CLR,0.00,VWS V12.08,2013-01-07 15:25:00,
2013-01-07 10:30:00,40.1,29.3,30.37,ENE,68,0.0,3.4,65,0.00,,CLR,0.00,VWS V12.08,2013-01-07 15:30:00,
2013-01-07 10:35:00,40.8,30.0,30.37,East,90,0.0,3.4,65,0.00,,CLR,0.00,VWS V12.08,2013-01-07 15:35:00,
2013-01-07 10:40:00,41.2,29.6,30.37,East,90,0.0,0.0,63,0.00,,CLR,0.00,VWS V12.08,2013-01-07 15:40:00,
2013-01-07 10:45:00,41.5,29.5,30.37,ENE,68,1.1,2.0,62,0.00,,CLR,0.00,VWS V12.08,2013-01-07 15:45:00,
2013-01-07 10:50:00,42.1,30.0,30.36,SE,135,0.0,3.4,62,0.00,,CLR,0.00,VWS V12.08,2013-01-07 15:50:00,
2013-01-07 10:55:00,42.3,29.8,30.36,SE,135,0.0,3.4,61,0.00,,CLR,0.00,VWS V12.08,2013-01-07 15:55:00,
2013-01-07 11:00:00,42.4,30.0,30.36,East,90,0.0,0.0,61,0.00,,CLR,0.00,VWS V12.08,2013-01-07 16:00:00,
2013-01-07 11:05:00,42.6,29.7,30.37,East,90,0.0,1.3,60,0.00,,CLR,0.00,VWS V12.08,2013-01-07 16:05:00,
2013-01-07 11:10:00,43.0,30.5,30.36,SSE,158,0.0,2.9,61,0.00,,CLR,0.00,VWS V12.08,2013-01-07 16:10:00,
2013-01-07 11:15:00,43.2,30.2,30.37,ENE,68,0.0,2.9,60,0.00,,CLR,0.00,VWS V12.08,2013-01-07 16:15:00,
2013-01-07 11:20:00,43.5,30.2,30.36,East,90,2.0,2.0,59,0.00,,CLR,0.00,VWS V12.08,2013-01-07 16:20:00,
2013-01-07 11:25:00,43.7,30.7,30.36,North,0,3.1,3.1,60,0.00,,CLR,0.00,VWS V12.08,2013-01-07 16:25:00,
2013-01-07 11:30:00,44.2,30.4,30.37,NNE,22,1.1,3.1,58,0.00,,CLR,0.00,VWS V12.08,2013-01-07 16:30:00,
2013-01-07 11:35:00,44.4,30.2,30.36,NE,45,0.0,3.1,57,0.00,,CLR,0.00,VWS V12.08,2013-01-07 16:35:00,
2013-01-07 11:40:00,45.0,30.2,30.35,SSW,202,0.0,0.0,56,0.00,,CLR,0.00,VWS V12.08,2013-01-07 16:40:00,
2013-01-07 11:45:00,45.1,30.0,30.35,ENE,68,0.0,4.5,55,0.00,,CLR,0.00,VWS V12.08,2013-01-07 16:45:00,
2013-01-07 11:50:00,45.3,30.1,30.35,NNE,22,1.3,4.5,55,0.00,,CLR,0.00,VWS V12.08,2013-01-07 16:50:00,
2013-01-07 11:55:00,45.7,30.0,30.35,ENE,68,0.0,4.5,54,0.00,,CLR,0.00,VWS V12.08,2013-01-07 16:55:00,
2013-01-07 12:00:00,45.7,30.0,30.35,ENE,68,0.0,0.0,54,0.00,,CLR,0.00,VWS V12.08,2013-01-07 17:00:00,
2013-01-07 12:05:00,46.0,30.3,30.34,WNW,292,0.0,1.1,54,0.00,,CLR,0.00,VWS V12.08,2013-01-07 17:05:00,
2013-01-07 12:10:00,46.0,29.9,30.35,WNW,292,2.7,5.6,53,0.00,,CLR,0.00,VWS V12.08,2013-01-07 17:10:00,
2013-01-07 12:15:00,46.2,30.0,30.34,ENE,68,0.0,5.6,53,0.00,,CLR,0.00,VWS V12.08,2013-01-07 17:15:00,
2013-01-07 12:20:00,46.2,30.0,30.34,ENE,68,0.0,0.0,53,0.00,,CLR,0.00,VWS V12.08,2013-01-07 17:20:00,
2013-01-07 12:25:00,46.6,29.9,30.33,NNE,22,0.0,3.6,52,0.00,,CLR,0.00,VWS V12.08,2013-01-07 17:25:00,
2013-01-07 12:30:00,46.9,30.2,30.34,ENE,68,0.0,3.6,52,0.00,,CLR,0.00,VWS V12.08,2013-01-07 17:30:00,
2013-01-07 12:35:00,47.3,30.1,30.33,NE,45,1.8,3.6,51,0.00,,CLR,0.00,VWS V12.08,2013-01-07 17:35:00,
2013-01-07 12:40:00,47.5,29.3,30.33,NNW,338,0.0,1.1,49,0.00,,CLR,0.00,VWS V12.08,2013-01-07 17:40:00,
2013-01-07 12:45:00,47.7,30.0,30.33,ESE,112,0.0,2.5,50,0.00,,CLR,0.00,VWS V12.08,2013-01-07 17:45:00,
2013-01-07 12:50:00,47.8,30.1,30.33,WNW,292,1.6,2.5,50,0.00,,CLR,0.00,VWS V12.08,2013-01-07 17:50:00,
2013-01-07 12:55:00,48.0,29.8,30.33,North,0,0.0,2.9,49,0.00,,CLR,0.00,VWS V12.08,2013-01-07 17:55:00,
2013-01-07 13:00:00,48.0,29.3,30.32,SE,135,0.0,1.3,48,0.00,,CLR,0.00,VWS V12.08,2013-01-07 18:00:00,
2013-01-07 13:05:00,48.0,29.8,30.32,ENE,68,0.0,2.2,49,0.00,,CLR,0.00,VWS V12.08,2013-01-07 18:05:00,
2013-01-07 13:10:00,48.4,30.1,30.32,ENE,68,0.0,2.2,49,0.00,,CLR,0.00,VWS V12.08,2013-01-07 18:10:00,
2013-01-07 13:15:00,48.6,30.3,30.32,East,90,0.0,3.8,49,0.00,,CLR,0.00,VWS V12.08,2013-01-07 18:15:00,
2013-01-07 13:20:00,48.7,30.5,30.32,ENE,68,1.1,1.1,49,0.00,,CLR,0.00,VWS V12.08,2013-01-07 18:20:00,
2013-01-07 13:25:00,48.7,29.9,30.32,NNE,22,2.5,3.6,48,0.00,,CLR,0.00,VWS V12.08,2013-01-07 18:25:00,
2013-01-07 13:30:00,48.7,29.9,30.31,ENE,68,0.0,3.6,48,0.00,,CLR,0.00,VWS V12.08,2013-01-07 18:30:00,
2013-01-07 13:35:00,48.7,29.4,30.31,WNW,292,0.0,4.7,47,0.00,,CLR,0.00,VWS V12.08,2013-01-07 18:35:00,
2013-01-07 13:40:00,48.9,30.1,30.31,NNE,22,0.0,0.0,48,0.00,,CLR,0.00,VWS V12.08,2013-01-07 18:40:00,
2013-01-07 13:45:00,49.3,30.4,30.31,North,0,3.8,6.5,48,0.00,,CLR,0.00,VWS V12.08,2013-01-07 18:45:00,
2013-01-07 13:50:00,49.3,29.9,30.31,East,90,2.2,6.5,47,0.00,,CLR,0.00,VWS V12.08,2013-01-07 18:50:00,
2013-01-07 13:55:00,49.3,29.9,30.31,NE,45,0.0,6.5,47,0.00,,CLR,0.00,VWS V12.08,2013-01-07 18:55:00,
2013-01-07 14:00:00,49.3,29.9,30.30,NNE,22,2.9,2.9,47,0.00,,CLR,0.00,VWS V12.08,2013-01-07 19:00:00,
2013-01-07 14:05:00,49.6,29.7,30.31,North,0,1.1,4.3,46,0.00,,CLR,0.00,VWS V12.08,2013-01-07 19:05:00,
2013-01-07 14:10:00,49.6,29.7,30.31,NE,45,1.3,4.9,46,0.00,,CLR,0.00,VWS V12.08,2013-01-07 19:10:00,
2013-01-07 14:15:00,49.8,29.9,30.31,ENE,68,0.0,4.9,46,0.00,,CLR,0.00,VWS V12.08,2013-01-07 19:15:00,
2013-01-07 14:20:00,49.8,29.9,30.31,ENE,68,0.0,0.0,46,0.00,,CLR,0.00,VWS V12.08,2013-01-07 19:20:00,
2013-01-07 14:25:00,49.8,29.9,30.30,SE,135,0.0,0.0,46,0.00,,CLR,0.00,VWS V12.08,2013-01-07 19:25:00,
2013-01-07 14:30:00,49.8,30.4,30.30,ENE,68,0.0,1.6,47,0.00,,CLR,0.00,VWS V12.08,2013-01-07 19:30:00,
2013-01-07 14:35:00,50.2,30.2,30.31,ENE,68,0.0,4.3,46,0.00,,CLR,0.00,VWS V12.08,2013-01-07 19:35:00,
2013-01-07 14:40:00,50.2,29.7,30.31,ENE,68,0.0,0.0,45,0.00,,CLR,0.00,VWS V12.08,2013-01-07 19:40:00,
2013-01-07 14:45:00,50.2,29.7,30.30,ESE,112,0.0,2.0,45,0.00,,CLR,0.00,VWS V12.08,2013-01-07 19:45:00,
2013-01-07 14:50:00,50.4,29.8,30.30,ENE,68,1.6,4.7,45,0.00,,CLR,0.00,VWS V12.08,2013-01-07 19:50:00,
2013-01-07 14:55:00,50.4,30.4,30.30,NE,45,0.0,4.7,46,0.00,,CLR,0.00,VWS V12.08,2013-01-07 19:55:00,
2013-01-07 15:00:00,50.4,29.8,30.31,ESE,112,0.0,0.0,45,0.00,,CLR,0.00,VWS V12.08,2013-01-07 20:00:00,
2013-01-07 15:05:00,50.2,30.2,30.30,NE,45,1.6,2.7,46,0.00,,CLR,0.00,VWS V12.08,2013-01-07 20:05:00,
2013-01-07 15:10:00,50.2,30.2,30.31,East,90,0.0,4.0,46,0.00,,CLR,0.00,VWS V12.08,2013-01-07 20:10:00,
2013-01-07 15:15:00,50.2,30.2,30.31,ENE,68,0.0,4.0,46,0.00,,CLR,0.00,VWS V12.08,2013-01-07 20:15:00,
2013-01-07 15:19:00,50.2,30.2,30.30,NNE,22,0.0,4.0,46,0.00,,CLR,0.00,VWS V12.08,2013-01-07 20:19:00,
2013-01-07 15:24:00,49.8,29.9,30.31,ENE,68,0.0,2.2,46,0.00,,CLR,0.00,VWS V12.08,2013-01-07 20:24:00,
2013-01-07 15:29:00,49.8,29.9,30.31,NE,45,0.0,5.4,46,0.00,,CLR,0.00,VWS V12.08,2013-01-07 20:29:00,
2013-01-07 15:34:00,49.6,29.7,30.31,ENE,68,0.0,5.4,46,0.00,,CLR,0.00,VWS V12.08,2013-01-07 20:34:00,
2013-01-07 15:39:00,49.6,30.2,30.31,ESE,112,0.0,5.4,47,0.00,,CLR,0.00,VWS V12.08,2013-01-07 20:39:00,
2013-01-07 15:44:00,49.3,29.4,30.31,NNE,22,0.7,3.6,46,0.00,,CLR,0.00,VWS V12.08,2013-01-07 20:44:00,
2013-01-07 15:49:00,49.1,29.2,30.31,NE,45,0.9,3.6,46,0.00,,CLR,0.00,VWS V12.08,2013-01-07 20:49:00,
2013-01-07 15:54:00,48.9,29.1,30.31,East,90,0.0,5.1,46,0.00,,CLR,0.00,VWS V12.08,2013-01-07 20:54:00,
2013-01-07 15:59:00,48.9,29.1,30.31,East,90,0.0,5.1,46,0.00,,CLR,0.00,VWS V12.08,2013-01-07 20:59:00,
2013-01-07 16:04:00,48.7,29.4,30.31,East,90,0.0,0.0,47,0.00,,CLR,0.00,VWS V12.08,2013-01-07 21:04:00,
2013-01-07 16:09:00,48.7,29.4,30.32,East,90,0.0,0.0,47,0.00,,CLR,0.00,VWS V12.08,2013-01-07 21:09:00,
2013-01-07 16:14:00,48.2,28.4,30.32,ENE,68,0.0,0.9,46,0.00,,CLR,0.00,VWS V12.08,2013-01-07 21:14:00,
2013-01-07 16:19:00,48.0,28.8,30.32,East,90,0.0,0.9,47,0.00,,CLR,0.00,VWS V12.08,2013-01-07 21:19:00,
2013-01-07 16:24:00,47.8,28.1,30.32,NE,45,0.0,0.0,46,0.00,,CLR,0.00,VWS V12.08,2013-01-07 21:24:00,
2013-01-07 16:29:00,47.5,28.3,30.32,NE,45,0.0,0.0,47,0.00,,CLR,0.00,VWS V12.08,2013-01-07 21:29:00,
2013-01-07 16:34:00,47.3,28.1,30.32,NE,45,0.0,0.0,47,0.00,,CLR,0.00,VWS V12.08,2013-01-07 21:34:00,
2013-01-07 16:39:00,47.1,28.5,30.32,NE,45,0.0,0.0,48,0.00,,CLR,0.00,VWS V12.08,2013-01-07 21:39:00,
2013-01-07 16:44:00,46.9,28.3,30.32,NE,45,0.0,0.0,48,0.00,,CLR,0.00,VWS V12.08,2013-01-07 21:44:00,
2013-01-07 16:49:00,46.6,29.0,30.33,ENE,68,0.0,0.0,50,0.00,,CLR,0.00,VWS V12.08,2013-01-07 21:49:00,
2013-01-07 16:54:00,46.2,28.6,30.33,ENE,68,0.0,0.0,50,0.00,,CLR,0.00,VWS V12.08,2013-01-07 21:54:00,
2013-01-07 16:59:00,45.7,28.6,30.32,ENE,68,0.0,0.0,51,0.00,,CLR,0.00,VWS V12.08,2013-01-07 21:59:00,
2013-01-07 17:04:00,45.3,28.3,30.32,ENE,68,0.0,0.0,51,0.00,,CLR,0.00,VWS V12.08,2013-01-07 22:04:00,
2013-01-07 17:09:00,45.0,28.4,30.33,ESE,112,0.0,0.0,52,0.00,,CLR,0.00,VWS V12.08,2013-01-07 22:09:00,
2013-01-07 17:14:00,44.8,28.7,30.33,ESE,112,0.0,0.0,53,0.00,,CLR,0.00,VWS V12.08,2013-01-07 22:14:00,
2013-01-07 17:19:00,44.2,28.2,30.33,ESE,112,0.0,0.0,53,0.00,,CLR,0.00,VWS V12.08,2013-01-07 22:19:00,
2013-01-07 17:24:00,44.1,28.0,30.34,ESE,112,0.0,0.0,53,0.00,,CLR,0.00,VWS V12.08,2013-01-07 22:24:00,
2013-01-07 17:29:00,43.3,28.3,30.33,ESE,112,0.0,0.0,55,0.00,,CLR,0.00,VWS V12.08,2013-01-07 22:29:00,
2013-01-07 17:34:00,43.3,28.3,30.34,ESE,112,0.0,0.0,55,0.00,,CLR,0.00,VWS V12.08,2013-01-07 22:34:00,
2013-01-07 17:39:00,42.6,28.0,30.34,ESE,112,0.0,0.0,56,0.00,,CLR,0.00,VWS V12.08,2013-01-07 22:39:00,
2013-01-07 17:44:00,42.6,28.0,30.34,ESE,112,0.0,0.0,56,0.00,,CLR,0.00,VWS V12.08,2013-01-07 22:44:00,
2013-01-07 17:49:00,42.1,28.0,30.34,ESE,112,0.0,0.0,57,0.00,,CLR,0.00,VWS V12.08,2013-01-07 22:49:00,
2013-01-07 17:54:00,41.7,27.6,30.34,ESE,112,0.0,0.0,57,0.00,,CLR,0.00,VWS V12.08,2013-01-07 22:54:00,
2013-01-07 17:59:00,41.4,27.7,30.34,ESE,112,0.0,0.0,58,0.00,,CLR,0.00,VWS V12.08,2013-01-07 22:59:00,
2013-01-07 18:04:00,41.4,27.7,30.34,ESE,112,0.0,0.0,58,0.00,,CLR,0.00,VWS V12.08,2013-01-07 23:04:00,
2013-01-07 18:09:00,40.8,27.6,30.35,ESE,112,0.0,0.0,59,0.00,,CLR,0.00,VWS V12.08,2013-01-07 23:09:00,
2013-01-07 18:14:00,40.8,27.6,30.35,ESE,112,0.0,0.0,59,0.00,,CLR,0.00,VWS V12.08,2013-01-07 23:14:00,
2013-01-07 18:19:00,40.5,27.3,30.35,ESE,112,0.0,0.0,59,0.00,,CLR,0.00,VWS V12.08,2013-01-07 23:19:00,
2013-01-07 18:24:00,39.9,27.2,30.35,ESE,112,0.0,0.0,60,0.00,,CLR,0.00,VWS V12.08,2013-01-07 23:24:00,
2013-01-07 18:29:00,39.7,27.0,30.35,ESE,112,0.0,0.0,60,0.00,,CLR,0.00,VWS V12.08,2013-01-07 23:29:00,
2013-01-07 18:34:00,39.6,26.8,30.35,ESE,112,0.0,0.0,60,0.00,,CLR,0.00,VWS V12.08,2013-01-07 23:34:00,
2013-01-07 18:39:00,39.4,27.1,30.35,ESE,112,0.0,0.0,61,0.00,,CLR,0.00,VWS V12.08,2013-01-07 23:39:00,
2013-01-07 18:44:00,39.4,27.1,30.35,ESE,112,0.0,0.0,61,0.00,,CLR,0.00,VWS V12.08,2013-01-07 23:44:00,
2013-01-07 18:49:00,39.0,26.7,30.35,ESE,112,0.0,0.0,61,0.00,,CLR,0.00,VWS V12.08,2013-01-07 23:49:00,
2013-01-07 18:54:00,38.8,27.0,30.35,ESE,112,0.0,0.0,62,0.00,,CLR,0.00,VWS V12.08,2013-01-07 23:54:00,
2013-01-07 18:59:00,38.5,26.6,30.35,ESE,112,0.0,0.0,62,0.00,,CLR,0.00,VWS V12.08,2013-01-07 23:59:00,
2013-01-07 19:04:00,38.3,26.4,30.35,ESE,112,0.0,0.0,62,0.00,,CLR,0.00,VWS V12.08,2013-01-08 00:04:00,
2013-01-07 19:09:00,38.1,26.6,30.35,ESE,112,0.0,0.0,63,0.00,,CLR,0.00,VWS V12.08,2013-01-08 00:09:00,
2013-01-07 19:14:00,37.9,26.5,30.35,ESE,112,0.0,0.0,63,0.00,,CLR,0.00,VWS V12.08,2013-01-08 00:14:00,
2013-01-07 19:19:00,37.9,26.5,30.35,ESE,112,0.0,0.0,63,0.00,,CLR,0.00,VWS V12.08,2013-01-08 00:19:00,
2013-01-07 19:24:00,37.6,26.1,30.35,ESE,112,0.0,0.0,63,0.00,,CLR,0.00,VWS V12.08,2013-01-08 00:24:00,
2013-01-07 19:29:00,37.4,26.0,30.35,ESE,112,0.0,0.0,63,0.00,,CLR,0.00,VWS V12.08,2013-01-08 00:29:00,
2013-01-07 19:34:00,37.4,26.0,30.35,ESE,112,0.0,0.0,63,0.00,,CLR,0.00,VWS V12.08,2013-01-08 00:34:00,
2013-01-07 19:39:00,37.2,25.8,30.35,SE,135,0.0,0.0,63,0.00,,CLR,0.00,VWS V12.08,2013-01-08 00:39:00,
2013-01-07 19:44:00,37.2,25.8,30.35,SE,135,0.0,0.0,63,0.00,,CLR,0.00,VWS V12.08,2013-01-08 00:44:00,
2013-01-07 19:49:00,37.2,26.2,30.35,SE,135,0.0,0.0,64,0.00,,CLR,0.00,VWS V12.08,2013-01-08 00:49:00,
2013-01-07 19:54:00,37.2,26.2,30.35,SE,135,0.0,0.0,64,0.00,,CLR,0.00,VWS V12.08,2013-01-08 00:54:00,
2013-01-07 20:00:00,37.2,26.2,30.35,SE,135,0.0,0.0,64,0.00,,CLR,0.00,VWS V12.08,2013-01-08 01:00:00,
2013-01-07 20:05:00,37.2,26.2,30.35,SE,135,0.0,0.0,64,0.00,,CLR,0.00,VWS V12.08,2013-01-08 01:05:00,
2013-01-07 20:10:00,37.2,26.2,30.34,SE,135,0.0,0.0,64,0.00,,CLR,0.00,VWS V12.08,2013-01-08 01:10:00,
2013-01-07 20:15:00,36.7,26.0,30.34,ESE,112,0.0,0.0,65,0.00,,CLR,0.00,VWS V12.08,2013-01-08 01:15:00,
2013-01-07 20:20:00,36.3,25.7,30.34,ESE,112,0.0,0.0,65,0.00,,CLR,0.00,VWS V12.08,2013-01-08 01:20:00,
2013-01-07 20:25:00,36.0,25.4,30.34,ESE,112,0.0,0.0,65,0.00,,CLR,0.00,VWS V12.08,2013-01-08 01:25:00,
2013-01-07 20:30:00,35.4,25.2,30.34,ESE,112,0.0,0.0,66,0.00,,CLR,0.00,VWS V12.08,2013-01-08 01:30:00,
2013-01-07 20:35:00,35.2,25.4,30.34,ESE,112,0.0,0.0,67,0.00,,CLR,0.00,VWS V12.08,2013-01-08 01:35:00,
2013-01-07 20:40:00,35.2,25.4,30.34,ESE,112,0.0,0.0,67,0.00,,CLR,0.00,VWS V12.08,2013-01-08 01:40:00,
2013-01-07 20:45:00,34.9,25.0,30.34,ESE,112,0.0,0.0,67,0.00,,CLR,0.00,VWS V12.08,2013-01-08 01:45:00,
2013-01-07 20:50:00,34.5,25.1,30.34,ESE,112,0.0,0.0,68,0.00,,CLR,0.00,VWS V12.08,2013-01-08 01:50:00,
2013-01-07 20:55:00,34.3,24.9,30.35,ESE,112,0.0,0.0,68,0.00,,CLR,0.00,VWS V12.08,2013-01-08 01:55:00,
2013-01-07 21:00:00,34.3,25.2,30.35,SE,135,0.0,0.0,69,0.00,,CLR,0.00,VWS V12.08,2013-01-08 02:00:00,
2013-01-07 21:05:00,34.2,25.1,30.35,ESE,112,0.0,0.0,69,0.00,,CLR,0.00,VWS V12.08,2013-01-08 02:05:00,
2013-01-07 21:10:00,34.0,24.9,30.35,ESE,112,0.0,0.0,69,0.00,,CLR,0.00,VWS V12.08,2013-01-08 02:10:00,
2013-01-07 21:15:00,33.8,24.7,30.35,ESE,112,0.0,0.0,69,0.00,,CLR,0.00,VWS V12.08,2013-01-08 02:15:00,
2013-01-07 21:20:00,33.6,24.9,30.35,ESE,112,0.0,0.0,70,0.00,,CLR,0.00,VWS V12.08,2013-01-08 02:20:00,
2013-01-07 21:25:00,33.4,24.7,30.35,ESE,112,0.0,0.0,70,0.00,,CLR,0.00,VWS V12.08,2013-01-08 02:25:00,
2013-01-07 21:30:00,33.3,24.5,30.35,ESE,112,0.0,0.0,70,0.00,,CLR,0.00,VWS V12.08,2013-01-08 02:30:00,
2013-01-07 21:35:00,33.1,24.4,30.35,ESE,112,0.0,0.0,70,0.00,,CLR,0.00,VWS V12.08,2013-01-08 02:35:00,
2013-01-07 21:40:00,33.1,24.7,30.35,SE,135,0.0,0.0,71,0.00,,CLR,0.00,VWS V12.08,2013-01-08 02:40:00,
2013-01-07 21:45:00,32.9,24.5,30.35,SE,135,0.0,0.0,71,0.00,,CLR,0.00,VWS V12.08,2013-01-08 02:45:00,
2013-01-07 21:50:00,32.9,24.5,30.35,ESE,112,0.0,0.0,71,0.00,,CLR,0.00,VWS V12.08,2013-01-08 02:50:00,
2013-01-07 21:55:00,32.9,24.5,30.35,ESE,112,0.0,0.0,71,0.00,,CLR,0.00,VWS V12.08,2013-01-08 02:55:00,
2013-01-07 22:00:00,32.9,24.9,30.35,ESE,112,0.0,0.0,72,0.00,,CLR,0.00,VWS V12.08,2013-01-08 03:00:00,
2013-01-07 22:05:00,32.7,24.7,30.36,ESE,112,0.0,0.0,72,0.00,,CLR,0.00,VWS V12.08,2013-01-08 03:05:00,
2013-01-07 22:10:00,32.7,24.7,30.35,ESE,112,0.0,0.0,72,0.00,,CLR,0.00,VWS V12.08,2013-01-08 03:10:00,
2013-01-07 22:15:00,32.5,24.5,30.35,ESE,112,0.0,0.0,72,0.00,,CLR,0.00,VWS V12.08,2013-01-08 03:15:00,
2013-01-07 22:20:00,32.5,24.5,30.35,SE,135,0.0,0.0,72,0.00,,CLR,0.00,VWS V12.08,2013-01-08 03:20:00,
2013-01-07 22:25:00,32.4,24.7,30.35,ESE,112,0.0,0.0,73,0.00,,CLR,0.00,VWS V12.08,2013-01-08 03:25:00,
2013-01-07 22:30:00,32.4,24.7,30.36,ESE,112,0.0,0.0,73,0.00,,CLR,0.00,VWS V12.08,2013-01-08 03:30:00,
2013-01-07 22:35:00,32.4,24.7,30.36,ESE,112,0.0,0.0,73,0.00,,CLR,0.00,VWS V12.08,2013-01-08 03:35:00,
2013-01-07 22:40:00,32.4,24.7,30.36,ESE,112,0.0,0.0,73,0.00,,CLR,0.00,VWS V12.08,2013-01-08 03:40:00,
2013-01-07 22:45:00,32.2,24.5,30.36,ESE,112,0.0,0.0,73,0.00,,CLR,0.00,VWS V12.08,2013-01-08 03:45:00,
2013-01-07 22:50:00,32.2,24.5,30.36,ESE,112,0.0,0.0,73,0.00,,CLR,0.00,VWS V12.08,2013-01-08 03:50:00,
2013-01-07 22:55:00,32.2,24.5,30.36,ESE,112,0.0,0.0,73,0.00,,CLR,0.00,VWS V12.08,2013-01-08 03:55:00,
2013-01-07 23:00:00,31.8,24.5,30.36,ESE,112,0.0,0.0,74,0.00,,CLR,0.00,VWS V12.08,2013-01-08 04:00:00,
2013-01-07 23:05:00,31.6,24.3,30.36,ESE,112,0.0,0.0,74,0.00,,CLR,0.00,VWS V12.08,2013-01-08 04:05:00,
2013-01-07 23:10:00,31.6,24.3,30.36,ESE,112,0.0,0.0,74,0.00,,CLR,0.00,VWS V12.08,2013-01-08 04:10:00,
2013-01-07 23:15:00,31.6,24.3,30.36,ESE,112,0.0,0.0,74,0.00,,CLR,0.00,VWS V12.08,2013-01-08 04:15:00,
2013-01-07 23:20:00,31.3,24.3,30.36,ESE,112,0.0,0.0,75,0.00,,CLR,0.00,VWS V12.08,2013-01-08 04:20:00,
2013-01-07 23:25:00,31.3,24.3,30.36,SE,135,0.0,0.0,75,0.00,,CLR,0.00,VWS V12.08,2013-01-08 04:25:00,
2013-01-07 23:30:00,31.3,24.3,30.36,SE,135,0.0,0.0,75,0.00,,CLR,0.00,VWS V12.08,2013-01-08 04:30:00,
2013-01-07 23:35:00,31.3,24.3,30.36,ESE,112,0.0,0.0,75,0.00,,CLR,0.00,VWS V12.08,2013-01-08 04:35:00,
2013-01-07 23:40:00,31.3,24.3,30.36,ESE,112,0.0,0.0,75,0.00,,CLR,0.00,VWS V12.08,2013-01-08 04:40:00,
2013-01-07 23:45:00,31.1,24.1,30.37,ESE,112,0.0,0.0,75,0.00,,CLR,0.00,VWS V12.08,2013-01-08 04:45:00,
2013-01-07 23:50:00,31.1,24.1,30.36,SE,135,0.0,0.0,75,0.00,,CLR,0.00,VWS V12.08,2013-01-08 04:50:00,
2013-01-07 23:55:00,30.9,23.9,30.37,SE,135,0.0,0.0,75,0.00,,CLR,0.00,VWS V12.08,2013-01-08 04:55:00,